sensor_id;sensor_type;location;lat;lon;timestamp;P1;durP1;ratioP1;P2;durP2;ratioP2
24901;SDS011;31328;51.402;0.016;2022-12-31T00:02:07;4.63;;;0.73;;
24901;SDS011;31328;51.402;0.016;2022-12-31T00:04:33;5.50;;;1.57;;
24901;SDS011;31328;51.402;0.016;2022-12-31T00:07:00;5.07;;;0.83;;
24901;SDS011;31328;51.402;0.016;2022-12-31T00:09:26;5.33;;;1.47;;
24901;SDS011;31328;51.402;0.016;2022-12-31T00:11:52;2.10;;;0.83;;
24901;SDS011;31328;51.402;0.016;2022-12-31T00:14:18;5.37;;;1.10;;
24901;SDS011;31328;51.402;0.016;2022-12-31T00:16:45;3.97;;;1.23;;
24901;SDS011;31328;51.402;0.016;2022-12-31T00:19:11;5.07;;;1.03;;
24901;SDS011;31328;51.402;0.016;2022-12-31T00:21:38;5.47;;;1.50;;
24901;SDS011;31328;51.402;0.016;2022-12-31T00:24:05;5.10;;;1.13;;
24901;SDS011;31328;51.402;0.016;2022-12-31T00:26:32;6.10;;;2.13;;
24901;SDS011;31328;51.402;0.016;2022-12-31T00:29:00;5.70;;;1.00;;
24901;SDS011;31328;51.402;0.016;2022-12-31T00:31:28;4.30;;;1.50;;
24901;SDS011;31328;51.402;0.016;2022-12-31T00:33:57;4.47;;;0.80;;
24901;SDS011;31328;51.402;0.016;2022-12-31T00:36:31;3.30;;;1.40;;
24901;SDS011;31328;51.402;0.016;2022-12-31T00:39:00;6.10;;;1.10;;
24901;SDS011;31328;51.402;0.016;2022-12-31T00:41:28;5.87;;;1.20;;
24901;SDS011;31328;51.402;0.016;2022-12-31T00:43:55;6.23;;;1.43;;
24901;SDS011;31328;51.402;0.016;2022-12-31T00:46:22;3.90;;;1.00;;
24901;SDS011;31328;51.402;0.016;2022-12-31T00:48:49;8.13;;;1.67;;
24901;SDS011;31328;51.402;0.016;2022-12-31T00:51:18;7.60;;;0.80;;
24901;SDS011;31328;51.402;0.016;2022-12-31T00:53:47;4.13;;;1.27;;
24901;SDS011;31328;51.402;0.016;2022-12-31T00:56:15;9.70;;;1.10;;
24901;SDS011;31328;51.402;0.016;2022-12-31T00:58:43;4.23;;;1.47;;
24901;SDS011;31328;51.402;0.016;2022-12-31T01:01:13;4.97;;;1.60;;
24901;SDS011;31328;51.402;0.016;2022-12-31T01:03:41;5.13;;;1.77;;
24901;SDS011;31328;51.402;0.016;2022-12-31T01:06:07;5.40;;;1.40;;
24901;SDS011;31328;51.402;0.016;2022-12-31T01:08:34;4.60;;;1.00;;
24901;SDS011;31328;51.402;0.016;2022-12-31T01:11:01;6.87;;;2.47;;
24901;SDS011;31328;51.402;0.016;2022-12-31T01:14:09;4.67;;;1.33;;
24901;SDS011;31328;51.402;0.016;2022-12-31T01:16:42;6.77;;;1.00;;
24901;SDS011;31328;51.402;0.016;2022-12-31T01:19:19;4.37;;;1.10;;
24901;SDS011;31328;51.402;0.016;2022-12-31T01:21:47;9.30;;;1.93;;
24901;SDS011;31328;51.402;0.016;2022-12-31T01:24:15;5.67;;;1.40;;
24901;SDS011;31328;51.402;0.016;2022-12-31T01:26:42;6.27;;;1.30;;
24901;SDS011;31328;51.402;0.016;2022-12-31T01:29:10;8.00;;;1.90;;
24901;SDS011;31328;51.402;0.016;2022-12-31T01:31:37;6.67;;;1.30;;
24901;SDS011;31328;51.402;0.016;2022-12-31T01:34:04;6.53;;;1.30;;
24901;SDS011;31328;51.402;0.016;2022-12-31T01:36:32;5.13;;;1.80;;
24901;SDS011;31328;51.402;0.016;2022-12-31T01:39:00;7.53;;;1.97;;
24901;SDS011;31328;51.402;0.016;2022-12-31T01:41:32;8.37;;;1.33;;
24901;SDS011;31328;51.402;0.016;2022-12-31T01:49:16;7.37;;;1.40;;
24901;SDS011;31328;51.402;0.016;2022-12-31T01:51:56;10.20;;;1.70;;
24901;SDS011;31328;51.402;0.016;2022-12-31T01:54:33;9.47;;;1.40;;
24901;SDS011;31328;51.402;0.016;2022-12-31T01:57:03;7.17;;;1.33;;
24901;SDS011;31328;51.402;0.016;2022-12-31T01:59:30;6.27;;;1.43;;
24901;SDS011;31328;51.402;0.016;2022-12-31T02:01:57;5.67;;;1.67;;
24901;SDS011;31328;51.402;0.016;2022-12-31T02:04:24;6.43;;;1.63;;
24901;SDS011;31328;51.402;0.016;2022-12-31T02:06:53;11.80;;;1.50;;
24901;SDS011;31328;51.402;0.016;2022-12-31T02:09:28;7.17;;;1.73;;
24901;SDS011;31328;51.402;0.016;2022-12-31T02:11:55;9.57;;;2.10;;
24901;SDS011;31328;51.402;0.016;2022-12-31T02:14:26;7.33;;;1.63;;
24901;SDS011;31328;51.402;0.016;2022-12-31T02:30:59;8.30;;;1.47;;
24901;SDS011;31328;51.402;0.016;2022-12-31T02:33:32;6.67;;;2.40;;
24901;SDS011;31328;51.402;0.016;2022-12-31T02:36:11;3.43;;;1.00;;
24901;SDS011;31328;51.402;0.016;2022-12-31T02:38:43;6.63;;;1.03;;
24901;SDS011;31328;51.402;0.016;2022-12-31T02:41:16;4.40;;;1.00;;
24901;SDS011;31328;51.402;0.016;2022-12-31T02:49:48;2.93;;;0.60;;
24901;SDS011;31328;51.402;0.016;2022-12-31T02:58:30;5.93;;;2.20;;
24901;SDS011;31328;51.402;0.016;2022-12-31T03:01:34;5.57;;;1.37;;
24901;SDS011;31328;51.402;0.016;2022-12-31T03:04:23;4.80;;;0.70;;
24901;SDS011;31328;51.402;0.016;2022-12-31T03:07:39;7.83;;;1.00;;
24901;SDS011;31328;51.402;0.016;2022-12-31T03:09:48;3.90;;;0.57;;
24901;SDS011;31328;51.402;0.016;2022-12-31T03:12:14;3.00;;;0.60;;
24901;SDS011;31328;51.402;0.016;2022-12-31T03:15:02;4.00;;;0.60;;
24901;SDS011;31328;51.402;0.016;2022-12-31T03:17:31;1.90;;;0.80;;
24901;SDS011;31328;51.402;0.016;2022-12-31T03:19:58;2.70;;;0.50;;
24901;SDS011;31328;51.402;0.016;2022-12-31T03:22:43;2.65;;;0.63;;
24901;SDS011;31328;51.402;0.016;2022-12-31T03:25:11;4.37;;;0.63;;
24901;SDS011;31328;51.402;0.016;2022-12-31T03:27:58;1.33;;;0.40;;
24901;SDS011;31328;51.402;0.016;2022-12-31T03:30:30;2.67;;;0.40;;
24901;SDS011;31328;51.402;0.016;2022-12-31T03:32:58;1.63;;;0.30;;
24901;SDS011;31328;51.402;0.016;2022-12-31T03:35:25;1.27;;;0.30;;
24901;SDS011;31328;51.402;0.016;2022-12-31T03:37:52;2.67;;;0.73;;
24901;SDS011;31328;51.402;0.016;2022-12-31T03:40:20;1.03;;;0.30;;
24901;SDS011;31328;51.402;0.016;2022-12-31T03:42:50;1.30;;;0.27;;
24901;SDS011;31328;51.402;0.016;2022-12-31T03:45:17;1.00;;;0.20;;
24901;SDS011;31328;51.402;0.016;2022-12-31T03:47:43;0.50;;;0.20;;
24901;SDS011;31328;51.402;0.016;2022-12-31T03:50:11;0.93;;;0.00;;
24901;SDS011;31328;51.402;0.016;2022-12-31T03:52:38;1.60;;;0.13;;
24901;SDS011;31328;51.402;0.016;2022-12-31T03:55:06;0.10;;;0.00;;
24901;SDS011;31328;51.402;0.016;2022-12-31T03:57:33;0.27;;;0.00;;
24901;SDS011;31328;51.402;0.016;2022-12-31T03:59:59;0.10;;;0.10;;
24901;SDS011;31328;51.402;0.016;2022-12-31T04:02:26;0.17;;;0.00;;
24901;SDS011;31328;51.402;0.016;2022-12-31T04:04:53;1.60;;;0.10;;
24901;SDS011;31328;51.402;0.016;2022-12-31T04:07:19;1.20;;;0.00;;
24901;SDS011;31328;51.402;0.016;2022-12-31T04:09:46;0.20;;;0.00;;
24901;SDS011;31328;51.402;0.016;2022-12-31T04:12:12;1.23;;;0.10;;
24901;SDS011;31328;51.402;0.016;2022-12-31T04:14:38;0.00;;;0.00;;
24901;SDS011;31328;51.402;0.016;2022-12-31T04:17:05;0.20;;;0.10;;
24901;SDS011;31328;51.402;0.016;2022-12-31T04:19:31;0.57;;;0.10;;
24901;SDS011;31328;51.402;0.016;2022-12-31T04:21:57;0.23;;;0.00;;
24901;SDS011;31328;51.402;0.016;2022-12-31T04:24:24;0.10;;;0.10;;
24901;SDS011;31328;51.402;0.016;2022-12-31T04:26:50;0.70;;;0.20;;
24901;SDS011;31328;51.402;0.016;2022-12-31T04:29:16;0.37;;;0.37;;
24901;SDS011;31328;51.402;0.016;2022-12-31T04:31:43;0.00;;;0.00;;
24901;SDS011;31328;51.402;0.016;2022-12-31T04:34:09;1.90;;;0.10;;
24901;SDS011;31328;51.402;0.016;2022-12-31T04:36:35;0.07;;;0.07;;
24901;SDS011;31328;51.402;0.016;2022-12-31T04:39:01;0.63;;;0.17;;
24901;SDS011;31328;51.402;0.016;2022-12-31T04:41:28;0.83;;;0.23;;
24901;SDS011;31328;51.402;0.016;2022-12-31T04:43:56;0.30;;;0.10;;
24901;SDS011;31328;51.402;0.016;2022-12-31T04:46:24;2.10;;;0.20;;
24901;SDS011;31328;51.402;0.016;2022-12-31T04:48:52;0.93;;;0.20;;
24901;SDS011;31328;51.402;0.016;2022-12-31T04:51:19;1.73;;;0.27;;
24901;SDS011;31328;51.402;0.016;2022-12-31T04:53:46;0.97;;;0.20;;
24901;SDS011;31328;51.402;0.016;2022-12-31T04:56:13;1.37;;;0.30;;
24901;SDS011;31328;51.402;0.016;2022-12-31T04:58:40;5.10;;;1.50;;
24901;SDS011;31328;51.402;0.016;2022-12-31T05:01:08;3.87;;;0.40;;
24901;SDS011;31328;51.402;0.016;2022-12-31T05:03:35;2.13;;;0.90;;
24901;SDS011;31328;51.402;0.016;2022-12-31T05:06:02;3.60;;;0.80;;
24901;SDS011;31328;51.402;0.016;2022-12-31T05:08:31;2.87;;;0.43;;
24901;SDS011;31328;51.402;0.016;2022-12-31T05:10:57;3.97;;;1.27;;
24901;SDS011;31328;51.402;0.016;2022-12-31T05:13:24;7.43;;;1.63;;
24901;SDS011;31328;51.402;0.016;2022-12-31T05:15:50;6.13;;;1.13;;
24901;SDS011;31328;51.402;0.016;2022-12-31T05:18:17;6.80;;;2.37;;
24901;SDS011;31328;51.402;0.016;2022-12-31T05:20:44;10.27;;;3.47;;
24901;SDS011;31328;51.402;0.016;2022-12-31T05:23:12;5.77;;;1.17;;
24901;SDS011;31328;51.402;0.016;2022-12-31T05:25:40;8.43;;;1.87;;
24901;SDS011;31328;51.402;0.016;2022-12-31T05:28:07;6.83;;;1.83;;
24901;SDS011;31328;51.402;0.016;2022-12-31T05:30:34;6.77;;;2.23;;
24901;SDS011;31328;51.402;0.016;2022-12-31T05:33:01;7.33;;;1.33;;
24901;SDS011;31328;51.402;0.016;2022-12-31T05:35:27;5.33;;;1.00;;
24901;SDS011;31328;51.402;0.016;2022-12-31T05:37:53;6.77;;;1.47;;
24901;SDS011;31328;51.402;0.016;2022-12-31T05:40:20;5.57;;;1.10;;
24901;SDS011;31328;51.402;0.016;2022-12-31T05:42:46;7.60;;;1.80;;
24901;SDS011;31328;51.402;0.016;2022-12-31T05:45:13;5.27;;;0.90;;
24901;SDS011;31328;51.402;0.016;2022-12-31T05:47:40;4.37;;;1.20;;
24901;SDS011;31328;51.402;0.016;2022-12-31T05:50:08;7.53;;;1.23;;
24901;SDS011;31328;51.402;0.016;2022-12-31T05:52:35;7.17;;;2.13;;
24901;SDS011;31328;51.402;0.016;2022-12-31T05:55:02;7.00;;;1.40;;
24901;SDS011;31328;51.402;0.016;2022-12-31T05:57:29;4.43;;;1.10;;
24901;SDS011;31328;51.402;0.016;2022-12-31T05:59:55;8.40;;;1.63;;
24901;SDS011;31328;51.402;0.016;2022-12-31T06:02:21;6.47;;;1.07;;
24901;SDS011;31328;51.402;0.016;2022-12-31T06:04:48;8.00;;;1.97;;
24901;SDS011;31328;51.402;0.016;2022-12-31T06:07:14;6.40;;;1.57;;
24901;SDS011;31328;51.402;0.016;2022-12-31T06:09:40;7.47;;;1.50;;
24901;SDS011;31328;51.402;0.016;2022-12-31T06:12:07;7.63;;;1.50;;
24901;SDS011;31328;51.402;0.016;2022-12-31T06:14:33;6.23;;;1.67;;
24901;SDS011;31328;51.402;0.016;2022-12-31T06:17:00;4.83;;;1.47;;
24901;SDS011;31328;51.402;0.016;2022-12-31T06:19:26;7.37;;;2.03;;
24901;SDS011;31328;51.402;0.016;2022-12-31T06:21:53;6.55;;;1.73;;
24901;SDS011;31328;51.402;0.016;2022-12-31T06:24:19;8.97;;;1.80;;
24901;SDS011;31328;51.402;0.016;2022-12-31T06:26:45;11.13;;;1.85;;
24901;SDS011;31328;51.402;0.016;2022-12-31T06:29:12;8.77;;;2.40;;
24901;SDS011;31328;51.402;0.016;2022-12-31T06:31:38;12.27;;;2.65;;
24901;SDS011;31328;51.402;0.016;2022-12-31T06:34:05;7.43;;;1.70;;
24901;SDS011;31328;51.402;0.016;2022-12-31T06:36:31;13.30;;;2.72;;
24901;SDS011;31328;51.402;0.016;2022-12-31T06:38:58;10.77;;;2.88;;
24901;SDS011;31328;51.402;0.016;2022-12-31T06:41:24;12.27;;;2.63;;
24901;SDS011;31328;51.402;0.016;2022-12-31T06:43:50;9.80;;;1.90;;
24901;SDS011;31328;51.402;0.016;2022-12-31T06:46:17;5.70;;;2.67;;
24901;SDS011;31328;51.402;0.016;2022-12-31T06:48:43;10.05;;;3.10;;
24901;SDS011;31328;51.402;0.016;2022-12-31T06:51:11;8.18;;;1.65;;
24901;SDS011;31328;51.402;0.016;2022-12-31T06:53:40;7.53;;;1.75;;
24901;SDS011;31328;51.402;0.016;2022-12-31T06:56:07;10.82;;;2.53;;
24901;SDS011;31328;51.402;0.016;2022-12-31T06:58:43;9.88;;;1.90;;
24901;SDS011;31328;51.402;0.016;2022-12-31T07:07:25;5.55;;;2.10;;
24901;SDS011;31328;51.402;0.016;2022-12-31T07:18:09;7.18;;;1.30;;
24901;SDS011;31328;51.402;0.016;2022-12-31T07:20:44;7.30;;;1.40;;
24901;SDS011;31328;51.402;0.016;2022-12-31T07:23:11;5.40;;;1.03;;
24901;SDS011;31328;51.402;0.016;2022-12-31T07:25:38;5.75;;;1.38;;
24901;SDS011;31328;51.402;0.016;2022-12-31T07:28:11;6.90;;;1.10;;
24901;SDS011;31328;51.402;0.016;2022-12-31T07:30:47;7.00;;;1.73;;
24901;SDS011;31328;51.402;0.016;2022-12-31T07:33:40;4.17;;;1.13;;
24901;SDS011;31328;51.402;0.016;2022-12-31T07:36:21;5.13;;;1.13;;
24901;SDS011;31328;51.402;0.016;2022-12-31T07:39:15;3.70;;;1.10;;
24901;SDS011;31328;51.402;0.016;2022-12-31T07:47:12;11.67;;;2.53;;
24901;SDS011;31328;51.402;0.016;2022-12-31T07:49:46;6.20;;;1.60;;
24901;SDS011;31328;51.402;0.016;2022-12-31T07:52:13;12.10;;;2.50;;
24901;SDS011;31328;51.402;0.016;2022-12-31T07:54:39;9.45;;;1.52;;
24901;SDS011;31328;51.402;0.016;2022-12-31T07:57:06;9.13;;;3.15;;
24901;SDS011;31328;51.402;0.016;2022-12-31T07:59:46;6.68;;;1.52;;
24901;SDS011;31328;51.402;0.016;2022-12-31T08:02:23;10.50;;;2.20;;
24901;SDS011;31328;51.402;0.016;2022-12-31T08:07:59;7.15;;;1.85;;
24901;SDS011;31328;51.402;0.016;2022-12-31T08:10:59;11.97;;;2.40;;
24901;SDS011;31328;51.402;0.016;2022-12-31T08:13:45;9.07;;;1.83;;
24901;SDS011;31328;51.402;0.016;2022-12-31T08:16:12;9.60;;;3.15;;
24901;SDS011;31328;51.402;0.016;2022-12-31T08:18:39;10.00;;;1.98;;
24901;SDS011;31328;51.402;0.016;2022-12-31T08:21:10;10.13;;;2.80;;
24901;SDS011;31328;51.402;0.016;2022-12-31T08:31:56;7.30;;;2.08;;
24901;SDS011;31328;51.402;0.016;2022-12-31T08:37:19;11.73;;;2.13;;
24901;SDS011;31328;51.402;0.016;2022-12-31T08:46:02;9.88;;;2.65;;
24901;SDS011;31328;51.402;0.016;2022-12-31T08:48:39;16.50;;;2.78;;
24901;SDS011;31328;51.402;0.016;2022-12-31T08:51:08;9.77;;;2.67;;
24901;SDS011;31328;51.402;0.016;2022-12-31T08:53:40;15.30;;;3.53;;
24901;SDS011;31328;51.402;0.016;2022-12-31T08:56:09;8.00;;;2.27;;
24901;SDS011;31328;51.402;0.016;2022-12-31T08:58:50;12.37;;;2.73;;
24901;SDS011;31328;51.402;0.016;2022-12-31T09:01:25;17.63;;;3.63;;
24901;SDS011;31328;51.402;0.016;2022-12-31T09:04:10;12.25;;;2.47;;
24901;SDS011;31328;51.402;0.016;2022-12-31T09:06:55;9.73;;;3.05;;
24901;SDS011;31328;51.402;0.016;2022-12-31T09:12:09;9.63;;;2.70;;
24901;SDS011;31328;51.402;0.016;2022-12-31T09:15:11;11.50;;;2.60;;
24901;SDS011;31328;51.402;0.016;2022-12-31T09:17:46;12.75;;;2.80;;
24901;SDS011;31328;51.402;0.016;2022-12-31T09:20:16;14.97;;;3.10;;
24901;SDS011;31328;51.402;0.016;2022-12-31T09:22:47;8.43;;;2.27;;
24901;SDS011;31328;51.402;0.016;2022-12-31T09:25:15;9.02;;;2.30;;
24901;SDS011;31328;51.402;0.016;2022-12-31T09:27:46;7.38;;;2.05;;
24901;SDS011;31328;51.402;0.016;2022-12-31T09:30:32;15.80;;;2.63;;
24901;SDS011;31328;51.402;0.016;2022-12-31T09:36:28;14.37;;;3.17;;
24901;SDS011;31328;51.402;0.016;2022-12-31T09:58:31;12.10;;;3.50;;
24901;SDS011;31328;51.402;0.016;2022-12-31T10:09:35;15.07;;;4.03;;
24901;SDS011;31328;51.402;0.016;2022-12-31T10:12:05;10.63;;;2.40;;
24901;SDS011;31328;51.402;0.016;2022-12-31T10:18:10;10.53;;;2.00;;
24901;SDS011;31328;51.402;0.016;2022-12-31T10:21:45;10.25;;;2.88;;
24901;SDS011;31328;51.402;0.016;2022-12-31T10:30:01;6.27;;;1.37;;
24901;SDS011;31328;51.402;0.016;2022-12-31T10:32:41;8.43;;;1.97;;
24901;SDS011;31328;51.402;0.016;2022-12-31T10:36:12;5.03;;;1.20;;
24901;SDS011;31328;51.402;0.016;2022-12-31T10:41:34;4.77;;;1.20;;
24901;SDS011;31328;51.402;0.016;2022-12-31T10:53:14;3.70;;;0.83;;
24901;SDS011;31328;51.402;0.016;2022-12-31T11:10:03;2.33;;;0.47;;
24901;SDS011;31328;51.402;0.016;2022-12-31T11:13:02;2.60;;;0.67;;
24901;SDS011;31328;51.402;0.016;2022-12-31T11:21:18;1.23;;;0.50;;
24901;SDS011;31328;51.402;0.016;2022-12-31T11:24:20;1.40;;;0.83;;
24901;SDS011;31328;51.402;0.016;2022-12-31T11:27:02;1.93;;;0.30;;
24901;SDS011;31328;51.402;0.016;2022-12-31T11:32:21;1.57;;;0.33;;
24901;SDS011;31328;51.402;0.016;2022-12-31T11:43:42;1.37;;;0.30;;
24901;SDS011;31328;51.402;0.016;2022-12-31T11:49:23;0.83;;;0.17;;
24901;SDS011;31328;51.402;0.016;2022-12-31T11:52:08;0.50;;;0.20;;
24901;SDS011;31328;51.402;0.016;2022-12-31T11:57:52;0.67;;;0.20;;
24901;SDS011;31328;51.402;0.016;2022-12-31T12:00:23;0.43;;;0.10;;
24901;SDS011;31328;51.402;0.016;2022-12-31T12:02:52;1.60;;;0.20;;
24901;SDS011;31328;51.402;0.016;2022-12-31T12:05:24;0.30;;;0.17;;
24901;SDS011;31328;51.402;0.016;2022-12-31T12:07:51;1.20;;;0.40;;
24901;SDS011;31328;51.402;0.016;2022-12-31T12:10:29;1.10;;;0.33;;
24901;SDS011;31328;51.402;0.016;2022-12-31T12:13:09;0.83;;;0.40;;
24901;SDS011;31328;51.402;0.016;2022-12-31T12:15:45;3.60;;;0.63;;
24901;SDS011;31328;51.402;0.016;2022-12-31T12:18:23;3.23;;;1.40;;
24901;SDS011;31328;51.402;0.016;2022-12-31T12:21:01;7.23;;;1.30;;
24901;SDS011;31328;51.402;0.016;2022-12-31T12:23:31;4.90;;;2.07;;
24901;SDS011;31328;51.402;0.016;2022-12-31T12:25:57;8.20;;;2.43;;
24901;SDS011;31328;51.402;0.016;2022-12-31T12:28:28;13.13;;;2.37;;
24901;SDS011;31328;51.402;0.016;2022-12-31T12:31:05;6.63;;;2.22;;
24901;SDS011;31328;51.402;0.016;2022-12-31T12:33:42;7.90;;;2.57;;
24901;SDS011;31328;51.402;0.016;2022-12-31T12:36:14;7.18;;;3.33;;
24901;SDS011;31328;51.402;0.016;2022-12-31T12:38:42;12.27;;;3.43;;
24901;SDS011;31328;51.402;0.016;2022-12-31T12:41:10;8.37;;;2.37;;
24901;SDS011;31328;51.402;0.016;2022-12-31T12:43:43;7.38;;;2.05;;
24901;SDS011;31328;51.402;0.016;2022-12-31T12:48:54;10.98;;;2.53;;
24901;SDS011;31328;51.402;0.016;2022-12-31T13:14:21;7.03;;;2.67;;
24901;SDS011;31328;51.402;0.016;2022-12-31T13:17:20;7.33;;;2.40;;
24901;SDS011;31328;51.402;0.016;2022-12-31T13:20:25;8.13;;;2.47;;
24901;SDS011;31328;51.402;0.016;2022-12-31T13:22:57;9.70;;;2.70;;
24901;SDS011;31328;51.402;0.016;2022-12-31T13:28:08;13.10;;;2.47;;
24901;SDS011;31328;51.402;0.016;2022-12-31T13:30:43;12.23;;;2.80;;
24901;SDS011;31328;51.402;0.016;2022-12-31T13:33:15;12.33;;;2.80;;
24901;SDS011;31328;51.402;0.016;2022-12-31T13:35:46;12.37;;;2.57;;
24901;SDS011;31328;51.402;0.016;2022-12-31T13:38:58;11.17;;;2.60;;
24901;SDS011;31328;51.402;0.016;2022-12-31T13:41:14;8.30;;;2.15;;
24901;SDS011;31328;51.402;0.016;2022-12-31T13:46:55;11.93;;;4.07;;
24901;SDS011;31328;51.402;0.016;2022-12-31T13:49:46;13.87;;;3.20;;
24901;SDS011;31328;51.402;0.016;2022-12-31T13:58:04;11.20;;;3.23;;
24901;SDS011;31328;51.402;0.016;2022-12-31T14:00:49;11.20;;;3.57;;
24901;SDS011;31328;51.402;0.016;2022-12-31T14:03:40;8.23;;;3.57;;
24901;SDS011;31328;51.402;0.016;2022-12-31T14:09:22;10.00;;;2.67;;
24901;SDS011;31328;51.402;0.016;2022-12-31T14:12:12;9.30;;;3.67;;
24901;SDS011;31328;51.402;0.016;2022-12-31T14:18:02;14.53;;;3.03;;
24901;SDS011;31328;51.402;0.016;2022-12-31T14:26:18;7.25;;;2.50;;
24901;SDS011;31328;51.402;0.016;2022-12-31T14:29:01;13.80;;;3.40;;
24901;SDS011;31328;51.402;0.016;2022-12-31T14:51:10;19.47;;;4.90;;
24901;SDS011;31328;51.402;0.016;2022-12-31T14:53:38;22.23;;;5.10;;
24901;SDS011;31328;51.402;0.016;2022-12-31T14:56:05;23.57;;;6.23;;
24901;SDS011;31328;51.402;0.016;2022-12-31T14:58:55;22.97;;;6.47;;
24901;SDS011;31328;51.402;0.016;2022-12-31T15:01:23;21.30;;;5.67;;
24901;SDS011;31328;51.402;0.016;2022-12-31T15:03:51;20.57;;;6.73;;
24901;SDS011;31328;51.402;0.016;2022-12-31T15:23:11;25.40;;;6.30;;
24901;SDS011;31328;51.402;0.016;2022-12-31T15:25:50;30.95;;;7.85;;
24901;SDS011;31328;51.402;0.016;2022-12-31T15:34:00;31.47;;;6.63;;
24901;SDS011;31328;51.402;0.016;2022-12-31T15:36:32;19.87;;;5.63;;
24901;SDS011;31328;51.402;0.016;2022-12-31T15:41:42;20.23;;;6.27;;
24901;SDS011;31328;51.402;0.016;2022-12-31T15:50:05;23.30;;;6.20;;
24901;SDS011;31328;51.402;0.016;2022-12-31T15:52:41;20.03;;;5.13;;
24901;SDS011;31328;51.402;0.016;2022-12-31T15:55:24;22.60;;;6.60;;
24901;SDS011;31328;51.402;0.016;2022-12-31T15:57:51;19.37;;;5.97;;
24901;SDS011;31328;51.402;0.016;2022-12-31T16:00:21;32.17;;;7.77;;
24901;SDS011;31328;51.402;0.016;2022-12-31T16:02:50;23.13;;;6.57;;
24901;SDS011;31328;51.402;0.016;2022-12-31T16:05:25;20.87;;;4.73;;
24901;SDS011;31328;51.402;0.016;2022-12-31T16:07:56;22.60;;;6.37;;
24901;SDS011;31328;51.402;0.016;2022-12-31T16:10:28;25.27;;;5.67;;
24901;SDS011;31328;51.402;0.016;2022-12-31T16:12:56;23.53;;;5.30;;
24901;SDS011;31328;51.402;0.016;2022-12-31T16:15:26;19.90;;;6.53;;
24901;SDS011;31328;51.402;0.016;2022-12-31T16:17:58;23.50;;;5.80;;
24901;SDS011;31328;51.402;0.016;2022-12-31T16:20:28;22.27;;;5.67;;
24901;SDS011;31328;51.402;0.016;2022-12-31T16:22:57;19.23;;;5.50;;
24901;SDS011;31328;51.402;0.016;2022-12-31T16:25:27;25.20;;;6.80;;
24901;SDS011;31328;51.402;0.016;2022-12-31T16:27:55;20.00;;;4.70;;
24901;SDS011;31328;51.402;0.016;2022-12-31T16:32:53;25.47;;;6.77;;
24901;SDS011;31328;51.402;0.016;2022-12-31T16:35:26;29.00;;;7.70;;
24901;SDS011;31328;51.402;0.016;2022-12-31T16:40:36;22.57;;;6.70;;
24901;SDS011;31328;51.402;0.016;2022-12-31T16:43:02;22.13;;;5.77;;
24901;SDS011;31328;51.402;0.016;2022-12-31T16:45:30;19.27;;;5.03;;
24901;SDS011;31328;51.402;0.016;2022-12-31T16:48:05;29.00;;;7.17;;
24901;SDS011;31328;51.402;0.016;2022-12-31T16:50:42;21.37;;;7.27;;
24901;SDS011;31328;51.402;0.016;2022-12-31T16:53:15;23.63;;;6.28;;
24901;SDS011;31328;51.402;0.016;2022-12-31T16:55:49;23.20;;;5.17;;
24901;SDS011;31328;51.402;0.016;2022-12-31T16:58:19;18.63;;;5.20;;
24901;SDS011;31328;51.402;0.016;2022-12-31T17:00:51;26.05;;;6.90;;
24901;SDS011;31328;51.402;0.016;2022-12-31T17:03:23;22.93;;;5.53;;
24901;SDS011;31328;51.402;0.016;2022-12-31T17:05:54;17.93;;;5.20;;
24901;SDS011;31328;51.402;0.016;2022-12-31T17:08:27;28.73;;;5.93;;
24901;SDS011;31328;51.402;0.016;2022-12-31T17:11:04;19.87;;;6.43;;
24901;SDS011;31328;51.402;0.016;2022-12-31T17:13:41;29.60;;;6.47;;
24901;SDS011;31328;51.402;0.016;2022-12-31T17:16:08;26.90;;;7.40;;
24901;SDS011;31328;51.402;0.016;2022-12-31T17:18:35;22.40;;;6.10;;
24901;SDS011;31328;51.402;0.016;2022-12-31T17:21:12;27.37;;;6.93;;
24901;SDS011;31328;51.402;0.016;2022-12-31T17:23:39;21.40;;;5.53;;
24901;SDS011;31328;51.402;0.016;2022-12-31T17:26:13;30.30;;;7.20;;
24901;SDS011;31328;51.402;0.016;2022-12-31T17:28:47;22.43;;;5.30;;
24901;SDS011;31328;51.402;0.016;2022-12-31T17:31:34;26.30;;;6.07;;
24901;SDS011;31328;51.402;0.016;2022-12-31T17:36:57;20.93;;;5.33;;
24901;SDS011;31328;51.402;0.016;2022-12-31T17:39:24;19.63;;;4.83;;
24901;SDS011;31328;51.402;0.016;2022-12-31T17:41:52;17.40;;;5.17;;
24901;SDS011;31328;51.402;0.016;2022-12-31T17:44:22;20.07;;;6.10;;
24901;SDS011;31328;51.402;0.016;2022-12-31T17:46:53;16.17;;;5.53;;
24901;SDS011;31328;51.402;0.016;2022-12-31T17:49:26;18.40;;;4.77;;
24901;SDS011;31328;51.402;0.016;2022-12-31T17:51:55;19.33;;;5.33;;
24901;SDS011;31328;51.402;0.016;2022-12-31T17:54:22;20.43;;;5.70;;
24901;SDS011;31328;51.402;0.016;2022-12-31T17:56:48;19.37;;;4.40;;
24901;SDS011;31328;51.402;0.016;2022-12-31T17:59:16;24.60;;;5.37;;
24901;SDS011;31328;51.402;0.016;2022-12-31T18:01:46;14.30;;;4.50;;
24901;SDS011;31328;51.402;0.016;2022-12-31T18:04:14;16.20;;;5.10;;
24901;SDS011;31328;51.402;0.016;2022-12-31T18:06:41;21.67;;;6.33;;
24901;SDS011;31328;51.402;0.016;2022-12-31T18:09:08;24.17;;;6.37;;
24901;SDS011;31328;51.402;0.016;2022-12-31T18:11:35;23.30;;;5.20;;
24901;SDS011;31328;51.402;0.016;2022-12-31T18:14:02;23.13;;;5.60;;
24901;SDS011;31328;51.402;0.016;2022-12-31T18:16:29;24.43;;;5.63;;
24901;SDS011;31328;51.402;0.016;2022-12-31T18:18:56;19.10;;;6.40;;
24901;SDS011;31328;51.402;0.016;2022-12-31T18:21:31;29.40;;;7.23;;
24901;SDS011;31328;51.402;0.016;2022-12-31T18:26:26;23.63;;;6.87;;
24901;SDS011;31328;51.402;0.016;2022-12-31T18:28:59;22.73;;;5.43;;
24901;SDS011;31328;51.402;0.016;2022-12-31T18:31:35;19.77;;;5.97;;
24901;SDS011;31328;51.402;0.016;2022-12-31T18:34:02;23.30;;;5.00;;
24901;SDS011;31328;51.402;0.016;2022-12-31T18:36:28;22.80;;;6.33;;
24901;SDS011;31328;51.402;0.016;2022-12-31T18:38:54;18.30;;;5.40;;
24901;SDS011;31328;51.402;0.016;2022-12-31T18:41:21;23.50;;;6.47;;
24901;SDS011;31328;51.402;0.016;2022-12-31T18:43:51;22.17;;;6.73;;
24901;SDS011;31328;51.402;0.016;2022-12-31T18:46:19;16.87;;;5.20;;
24901;SDS011;31328;51.402;0.016;2022-12-31T18:48:48;15.30;;;5.57;;
24901;SDS011;31328;51.402;0.016;2022-12-31T18:51:18;22.50;;;4.67;;
24901;SDS011;31328;51.402;0.016;2022-12-31T18:53:46;18.53;;;5.20;;
24901;SDS011;31328;51.402;0.016;2022-12-31T18:56:14;15.93;;;5.10;;
24901;SDS011;31328;51.402;0.016;2022-12-31T18:58:41;25.53;;;6.00;;
24901;SDS011;31328;51.402;0.016;2022-12-31T19:01:14;23.27;;;6.20;;
24901;SDS011;31328;51.402;0.016;2022-12-31T19:03:47;20.67;;;5.80;;
24901;SDS011;31328;51.402;0.016;2022-12-31T19:06:13;23.73;;;5.20;;
24901;SDS011;31328;51.402;0.016;2022-12-31T19:08:40;16.77;;;5.50;;
24901;SDS011;31328;51.402;0.016;2022-12-31T19:11:07;24.27;;;5.67;;
24901;SDS011;31328;51.402;0.016;2022-12-31T19:13:38;18.00;;;6.27;;
24901;SDS011;31328;51.402;0.016;2022-12-31T19:16:05;19.03;;;6.17;;
24901;SDS011;31328;51.402;0.016;2022-12-31T19:18:32;18.67;;;6.47;;
24901;SDS011;31328;51.402;0.016;2022-12-31T19:20:59;23.93;;;6.23;;
24901;SDS011;31328;51.402;0.016;2022-12-31T19:23:26;18.77;;;6.13;;
24901;SDS011;31328;51.402;0.016;2022-12-31T19:25:52;24.90;;;6.30;;
24901;SDS011;31328;51.402;0.016;2022-12-31T19:28:20;25.77;;;6.03;;
24901;SDS011;31328;51.402;0.016;2022-12-31T19:30:48;19.67;;;5.77;;
24901;SDS011;31328;51.402;0.016;2022-12-31T19:33:15;26.43;;;5.97;;
24901;SDS011;31328;51.402;0.016;2022-12-31T19:35:42;26.97;;;5.87;;
24901;SDS011;31328;51.402;0.016;2022-12-31T19:38:19;25.83;;;7.60;;
24901;SDS011;31328;51.402;0.016;2022-12-31T19:40:48;20.70;;;6.43;;
24901;SDS011;31328;51.402;0.016;2022-12-31T19:43:17;18.77;;;4.97;;
24901;SDS011;31328;51.402;0.016;2022-12-31T19:45:45;17.97;;;4.93;;